Terminal Aerodrome Forecast
Issued by NWS Wilmington, OH

Current Version | Previous Version | Graphics & Text | Print | Product List | Glossary On
Versions: 1 2 3 4 5 6 7 8 9 10 11 12 13 14 15 16 17 18 19 20 21 22 23 24 25 26
000
FTUS41 KILN 252300
TAFCMH
TAF
KCMH 252339Z 2600/2624 21006KT P6SM SCT070 BKN100
     FM260900 18003KT P6SM SCT080
     FM261400 22012KT P6SM SCT030 SCT100 BKN250
     FM262000 22010KT P6SM VCTS SCT030CB BKN250=

USA.gov is the U.S. government's official web portal to all federal, state and local government web resources and services.